Time;durP1;ratioP1;P1;durP2;ratioP2;P2;SDS_P1;SDS_P2;PMS_P1;PMS_P2;Temp;Humidity;BMP_temperature;BMP_pressure;BME280_temperature;BME280_humidity;BME280_pressure;Samples;Min_cycle;Max_cycle;Signal;HPM_P1;HPM_P2
2021/07/05 00:01:00;;;;;;;;;3.50;2.00;;;;;;;;5054353;28;45583;-77
2021/07/05 00:03:25;;;;;;;;;1.00;1.00;;;;;;;;5055419;28;45492;-77
2021/07/05 00:05:51;;;;;;;;;4.00;2.00;;;;;;;;5055354;28;45550;-77
2021/07/05 00:08:16;;;;;;;;;4.33;2.00;;;;;;;;5055181;28;45565;-75
2021/07/05 00:10:41;;;;;;;;;3.75;3.00;;;;;;;;5050554;28;45546;-76
2021/07/05 00:13:07;;;;;;;;;2.00;2.00;;;;;;;;5053819;28;46114;-76
2021/07/05 00:15:34;;;;;;;;;3.25;2.75;;;;;;;;5055727;28;45620;-76
2021/07/05 00:18:00;;;;;;;;;2.00;2.00;;;;;;;;5058278;27;45576;-77
2021/07/05 00:20:27;;;;;;;;;1.75;1.50;;;;;;;;5050896;28;45401;-76
2021/07/05 00:22:53;;;;;;;;;3.00;3.00;;;;;;;;5051484;28;45997;-76
2021/07/05 00:25:18;;;;;;;;;3.00;1.25;;;;;;;;5054865;28;45583;-76
2021/07/05 00:27:44;;;;;;;;;2.50;2.00;;;;;;;;5053318;28;45557;-76
2021/07/05 00:30:09;;;;;;;;;3.00;1.00;;;;;;;;5050314;28;45407;-76
2021/07/05 00:32:35;;;;;;;;;4.00;3.00;;;;;;;;5052639;28;45548;-76
2021/07/05 00:35:00;;;;;;;;;2.00;2.00;;;;;;;;5053268;28;45564;-75
2021/07/05 00:37:25;;;;;;;;;2.25;1.75;;;;;;;;5054732;28;45319;-76
2021/07/05 00:39:50;;;;;;;;;2.00;2.00;;;;;;;;5058868;28;45577;-75
2021/07/05 00:42:16;;;;;;;;;3.67;2.00;;;;;;;;5051126;28;48171;-76
2021/07/05 00:44:41;;;;;;;;;3.33;2.00;;;;;;;;5052104;28;45645;-76
2021/07/05 00:47:06;;;;;;;;;3.00;3.00;;;;;;;;5058664;28;45339;-76
2021/07/05 00:49:31;;;;;;;;;3.25;2.25;;;;;;;;5060840;28;45300;-76
2021/07/05 00:51:57;;;;;;;;;4.00;1.67;;;;;;;;5061623;28;45482;-75
2021/07/05 00:54:22;;;;;;;;;2.00;2.00;;;;;;;;5052156;28;45427;-76
2021/07/05 00:56:48;;;;;;;;;3.00;2.00;;;;;;;;5052675;28;45416;-76
2021/07/05 00:59:14;;;;;;;;;2.00;2.00;;;;;;;;5051651;28;45260;-75
2021/07/05 01:01:39;;;;;;;;;1.00;1.00;;;;;;;;5047484;28;47106;-76
2021/07/05 01:04:04;;;;;;;;;2.50;2.50;;;;;;;;5056747;28;45449;-76
2021/07/05 01:06:29;;;;;;;;;4.00;1.25;;;;;;;;5052151;28;46594;-76
2021/07/05 01:08:55;;;;;;;;;1.00;0.00;;;;;;;;5054172;28;45383;-76
2021/07/05 01:11:21;;;;;;;;;3.00;1.00;;;;;;;;5056788;28;46060;-76
2021/07/05 01:13:47;;;;;;;;;3.50;2.25;;;;;;;;5053875;28;45937;-76
2021/07/05 01:16:12;;;;;;;;;1.00;1.00;;;;;;;;5063607;28;45437;-76
2021/07/05 01:18:38;;;;;;;;;3.00;3.00;;;;;;;;5058060;28;45491;-76
2021/07/05 01:21:03;;;;;;;;;1.00;1.00;;;;;;;;5053859;28;46162;-77
2021/07/05 01:23:28;;;;;;;;;3.67;2.00;;;;;;;;5059212;28;45909;-76
2021/07/05 01:25:54;;;;;;;;;4.75;2.00;;;;;;;;5052499;28;45353;-76
2021/07/05 01:28:19;;;;;;;;;4.00;1.25;;;;;;;;5053008;28;45384;-77
2021/07/05 01:30:45;;;;;;;;;2.25;2.25;;;;;;;;5056509;28;46111;-76
2021/07/05 01:33:11;;;;;;;;;2.25;2.00;;;;;;;;5052625;28;45540;-75
2021/07/05 01:35:37;;;;;;;;;2.50;2.00;;;;;;;;5056386;28;45760;-77
2021/07/05 01:38:08;;;;;;;;;2.50;1.00;;;;;;;;5061113;28;45519;-76
2021/07/05 01:40:33;;;;;;;;;3.75;2.00;;;;;;;;5050665;28;45683;-76
2021/07/05 01:42:59;;;;;;;;;3.00;1.67;;;;;;;;5061387;28;45411;-76
2021/07/05 01:45:26;;;;;;;;;3.00;2.00;;;;;;;;5071828;27;45627;-77
2021/07/05 01:47:52;;;;;;;;;2.25;1.25;;;;;;;;5049365;28;45565;-75
2021/07/05 01:50:18;;;;;;;;;2.00;2.00;;;;;;;;5057985;28;46054;-76
2021/07/05 01:52:44;;;;;;;;;3.00;1.50;;;;;;;;5064511;28;46013;-76
2021/07/05 01:55:09;;;;;;;;;2.00;2.00;;;;;;;;5062465;28;45455;-76
2021/07/05 01:57:36;;;;;;;;;1.00;1.00;;;;;;;;5054273;27;45469;-75
2021/07/05 02:00:07;;;;;;;;;1.00;1.00;;;;;;;;5056558;28;46199;-78
2021/07/05 02:02:32;;;;;;;;;3.75;2.00;;;;;;;;5050433;28;45966;-76
2021/07/05 02:04:57;;;;;;;;;2.00;1.00;;;;;;;;5051262;28;45479;-76
2021/07/05 02:07:23;;;;;;;;;1.67;1.33;;;;;;;;5053416;28;45268;-75
2021/07/05 02:09:48;;;;;;;;;2.00;2.00;;;;;;;;5051684;28;45990;-76
2021/07/05 02:12:14;;;;;;;;;1.25;1.25;;;;;;;;5055550;28;45480;-76
2021/07/05 02:14:40;;;;;;;;;5.50;3.00;;;;;;;;5061148;28;45396;-76
2021/07/05 02:17:06;;;;;;;;;1.00;1.00;;;;;;;;5064373;28;45522;-76
2021/07/05 02:19:32;;;;;;;;;2.50;2.00;;;;;;;;5062326;28;45514;-75
2021/07/05 02:21:57;;;;;;;;;4.00;2.50;;;;;;;;5061992;28;45415;-75
2021/07/05 02:24:22;;;;;;;;;2.00;2.00;;;;;;;;5057561;28;45379;-75
2021/07/05 02:26:47;;;;;;;;;2.00;2.00;;;;;;;;5059617;28;45466;-76
2021/07/05 02:29:13;;;;;;;;;2.00;2.00;;;;;;;;5055010;28;47120;-76
2021/07/05 02:31:38;;;;;;;;;2.75;2.00;;;;;;;;5067830;28;45485;-75
2021/07/05 02:34:04;;;;;;;;;1.50;1.25;;;;;;;;5056635;28;45426;-76
2021/07/05 02:36:29;;;;;;;;;3.50;2.25;;;;;;;;5057797;28;45661;-76
2021/07/05 02:38:55;;;;;;;;;1.00;1.00;;;;;;;;5060484;28;45706;-75
2021/07/05 02:41:20;;;;;;;;;3.75;1.25;;;;;;;;5054766;28;45452;-75
2021/07/05 02:43:45;;;;;;;;;4.00;2.00;;;;;;;;5062578;28;45488;-77
2021/07/05 02:46:11;;;;;;;;;4.75;2.75;;;;;;;;5065450;28;45559;-75
2021/07/05 02:48:38;;;;;;;;;2.75;2.00;;;;;;;;5059123;27;45524;-75
2021/07/05 02:51:05;;;;;;;;;3.25;3.00;;;;;;;;5054697;27;45367;-76
2021/07/05 02:53:30;;;;;;;;;2.25;2.25;;;;;;;;5062492;27;46092;-76
2021/07/05 02:55:56;;;;;;;;;3.50;3.00;;;;;;;;5063800;28;45502;-76
2021/07/05 02:58:21;;;;;;;;;2.00;2.00;;;;;;;;5055882;28;45969;-75
2021/07/05 03:00:48;;;;;;;;;1.00;1.00;;;;;;;;5055135;28;45521;-76
2021/07/05 03:03:15;;;;;;;;;2.00;2.00;;;;;;;;5053434;28;45465;-76
2021/07/05 03:05:40;;;;;;;;;2.50;2.25;;;;;;;;5053373;28;45496;-76
2021/07/05 03:08:06;;;;;;;;;1.75;1.75;;;;;;;;5060326;28;45499;-77
2021/07/05 03:10:33;;;;;;;;;3.00;2.00;;;;;;;;5055026;28;45446;-76
2021/07/05 03:13:00;;;;;;;;;3.00;3.00;;;;;;;;5055162;28;45460;-76
2021/07/05 03:15:25;;;;;;;;;2.00;2.00;;;;;;;;5056787;28;45429;-76
2021/07/05 03:17:51;;;;;;;;;2.75;2.75;;;;;;;;5058407;27;47114;-75
2021/07/05 03:20:17;;;;;;;;;3.00;1.00;;;;;;;;5062747;28;48838;-76
2021/07/05 03:22:44;;;;;;;;;2.00;2.00;;;;;;;;5063098;28;45675;-76
2021/07/05 03:25:10;;;;;;;;;4.25;2.00;;;;;;;;5064809;28;45377;-75
2021/07/05 03:27:36;;;;;;;;;3.25;1.25;;;;;;;;5070388;27;47803;-76
2021/07/05 03:30:03;;;;;;;;;4.50;3.00;;;;;;;;5054548;28;45375;-75
2021/07/05 03:32:28;;;;;;;;;3.00;2.00;;;;;;;;5062868;28;45573;-76
2021/07/05 03:34:53;;;;;;;;;4.67;2.00;;;;;;;;5051274;28;45541;-75
2021/07/05 03:37:19;;;;;;;;;2.33;2.33;;;;;;;;5058815;28;46257;-76
2021/07/05 03:39:44;;;;;;;;;2.00;2.00;;;;;;;;5053038;28;49562;-76
2021/07/05 03:42:10;;;;;;;;;0.50;0.50;;;;;;;;5054065;28;45512;-77
2021/07/05 03:44:35;;;;;;;;;2.33;1.33;;;;;;;;5063248;28;45395;-76
2021/07/05 03:47:00;;;;;;;;;2.75;2.50;;;;;;;;5061966;28;48162;-76
2021/07/05 03:49:25;;;;;;;;;2.00;1.00;;;;;;;;5063456;28;45332;-77
2021/07/05 03:51:51;;;;;;;;;2.00;2.00;;;;;;;;5068335;27;45583;-75
2021/07/05 03:54:16;;;;;;;;;3.00;2.00;;;;;;;;5055503;28;45886;-76
2021/07/05 03:56:42;;;;;;;;;3.00;2.50;;;;;;;;5060993;27;45460;-74
2021/07/05 03:59:07;;;;;;;;;2.00;2.00;;;;;;;;5051075;28;46731;-76
2021/07/05 04:01:32;;;;;;;;;1.67;1.67;;;;;;;;5053123;28;45459;-75
2021/07/05 04:03:58;;;;;;;;;3.67;1.33;;;;;;;;5060016;28;45530;-76
2021/07/05 04:06:24;;;;;;;;;4.00;2.00;;;;;;;;5055955;28;45441;-75
2021/07/05 04:08:49;;;;;;;;;2.00;2.00;;;;;;;;5073471;27;45854;-75
2021/07/05 04:11:14;;;;;;;;;2.00;2.00;;;;;;;;5053419;28;46014;-78
2021/07/05 04:13:39;;;;;;;;;2.00;2.00;;;;;;;;5062133;28;45380;-76
2021/07/05 04:16:05;;;;;;;;;5.00;2.50;;;;;;;;5062678;28;48263;-76
2021/07/05 04:18:30;;;;;;;;;2.00;2.00;;;;;;;;5058534;27;45600;-75
2021/07/05 04:20:55;;;;;;;;;2.33;2.33;;;;;;;;5060710;28;45474;-76
2021/07/05 04:23:24;;;;;;;;;2.67;2.67;;;;;;;;5059156;28;45281;-75
2021/07/05 04:25:49;;;;;;;;;4.25;3.75;;;;;;;;5061798;28;46152;-75
2021/07/05 04:28:16;;;;;;;;;6.33;3.00;;;;;;;;5054322;28;45788;-75
2021/07/05 04:30:41;;;;;;;;;6.50;2.00;;;;;;;;5056826;28;46267;-76
2021/07/05 04:33:07;;;;;;;;;3.00;3.00;;;;;;;;5053070;28;45311;-76
2021/07/05 04:35:32;;;;;;;;;6.33;2.00;;;;;;;;5062185;28;45876;-76
2021/07/05 04:37:58;;;;;;;;;3.00;3.00;;;;;;;;5051634;28;45735;-74
2021/07/05 04:40:24;;;;;;;;;5.25;3.00;;;;;;;;5052339;28;45558;-73
2021/07/05 04:42:50;;;;;;;;;7.75;4.00;;;;;;;;5054146;28;45572;-76
2021/07/05 04:45:17;;;;;;;;;4.00;4.00;;;;;;;;5052955;28;46162;-73
2021/07/05 04:47:42;;;;;;;;;5.00;3.50;;;;;;;;5050146;28;45768;-77
2021/07/05 04:50:09;;;;;;;;;2.50;2.50;;;;;;;;5057762;28;45549;-74
2021/07/05 04:52:35;;;;;;;;;5.00;4.25;;;;;;;;5062623;28;45420;-76
2021/07/05 04:55:00;;;;;;;;;3.00;2.75;;;;;;;;5059312;28;46086;-73
2021/07/05 04:57:25;;;;;;;;;2.67;2.00;;;;;;;;5052958;28;45353;-75
2021/07/05 04:59:50;;;;;;;;;2.67;2.67;;;;;;;;5051678;28;45443;-77
2021/07/05 05:02:15;;;;;;;;;3.67;3.00;;;;;;;;5062352;28;45448;-77
2021/07/05 05:04:41;;;;;;;;;2.00;2.00;;;;;;;;5062430;28;45461;-76
2021/07/05 05:07:07;;;;;;;;;3.00;2.00;;;;;;;;5062559;28;45565;-76
2021/07/05 05:09:32;;;;;;;;;2.00;2.00;;;;;;;;5050274;28;45365;-76
2021/07/05 05:11:57;;;;;;;;;2.33;2.00;;;;;;;;5051952;28;45345;-75
2021/07/05 05:14:22;;;;;;;;;1.67;1.00;;;;;;;;5050774;28;46338;-76
2021/07/05 05:16:48;;;;;;;;;1.00;1.00;;;;;;;;5061088;28;45578;-75
2021/07/05 05:19:14;;;;;;;;;2.75;2.00;;;;;;;;5064700;28;45381;-76
2021/07/05 05:21:39;;;;;;;;;1.50;1.50;;;;;;;;5058165;28;45544;-77
2021/07/05 05:24:05;;;;;;;;;1.00;1.00;;;;;;;;5057670;28;46233;-77
2021/07/05 05:26:30;;;;;;;;;1.00;1.00;;;;;;;;5062886;28;46087;-76
2021/07/05 05:28:56;;;;;;;;;1.00;1.00;;;;;;;;5056940;28;45382;-76
2021/07/05 05:31:21;;;;;;;;;3.00;1.00;;;;;;;;5061610;28;45534;-76
2021/07/05 05:33:47;;;;;;;;;1.00;1.00;;;;;;;;5057880;28;46531;-75
2021/07/05 05:36:12;;;;;;;;;0.00;0.00;;;;;;;;5057276;27;46096;-76
2021/07/05 05:38:37;;;;;;;;;0.00;0.00;;;;;;;;5061367;28;46099;-76
2021/07/05 05:41:03;;;;;;;;;1.00;1.00;;;;;;;;5055077;28;45822;-76
2021/07/05 05:43:29;;;;;;;;;1.00;1.00;;;;;;;;5054065;28;45325;-76
2021/07/05 05:46:00;;;;;;;;;1.50;0.50;;;;;;;;5059295;28;45974;-76
2021/07/05 05:48:25;;;;;;;;;1.25;1.00;;;;;;;;5072365;27;45483;-76
2021/07/05 05:50:50;;;;;;;;;1.00;1.00;;;;;;;;5074526;27;45483;-76
2021/07/05 05:53:16;;;;;;;;;1.00;1.00;;;;;;;;5062480;28;45353;-76
2021/07/05 05:55:46;;;;;;;;;1.33;1.00;;;;;;;;5062009;28;45410;-76
2021/07/05 05:58:11;;;;;;;;;2.25;1.00;;;;;;;;5063924;28;45383;-77
2021/07/05 06:00:36;;;;;;;;;2.00;2.00;;;;;;;;5054087;27;45470;-76
2021/07/05 06:03:02;;;;;;;;;1.00;1.00;;;;;;;;5042589;28;45435;-78
2021/07/05 06:05:27;;;;;;;;;2.00;2.00;;;;;;;;5039880;28;45498;-76
2021/07/05 06:07:52;;;;;;;;;2.67;2.00;;;;;;;;5044276;28;45362;-77
2021/07/05 06:10:19;;;;;;;;;1.75;1.00;;;;;;;;5052876;28;45318;-76
2021/07/05 06:12:44;;;;;;;;;2.00;2.00;;;;;;;;5049301;28;45478;-77
2021/07/05 06:15:10;;;;;;;;;3.00;2.00;;;;;;;;5048259;28;46134;-75
2021/07/05 06:17:35;;;;;;;;;3.00;1.75;;;;;;;;5053710;27;45526;-75
2021/07/05 06:20:01;;;;;;;;;3.00;2.00;;;;;;;;5041750;28;45427;-76
2021/07/05 06:22:29;;;;;;;;;2.00;2.00;;;;;;;;5051010;28;46836;-76
2021/07/05 06:24:54;;;;;;;;;1.00;1.00;;;;;;;;5047803;28;46257;-76
2021/07/05 06:27:19;;;;;;;;;3.00;2.75;;;;;;;;5048106;28;45825;-75
2021/07/05 06:29:45;;;;;;;;;3.00;3.00;;;;;;;;5051615;28;45553;-76
2021/07/05 06:32:10;;;;;;;;;2.00;2.00;;;;;;;;5050321;28;45493;-78
2021/07/05 06:34:35;;;;;;;;;1.75;1.75;;;;;;;;5048797;28;45428;-76
2021/07/05 06:37:01;;;;;;;;;2.33;2.00;;;;;;;;5059479;28;45559;-77
2021/07/05 06:39:26;;;;;;;;;2.50;2.50;;;;;;;;5047807;27;45703;-75
2021/07/05 06:41:51;;;;;;;;;2.00;2.00;;;;;;;;5048245;28;45425;-74
2021/07/05 06:44:16;;;;;;;;;2.00;2.00;;;;;;;;5050245;28;45725;-74
2021/07/05 06:46:42;;;;;;;;;1.25;1.25;;;;;;;;5050671;28;45442;-74
2021/07/05 06:49:14;;;;;;;;;1.00;1.00;;;;;;;;5049286;28;45421;-74
2021/07/05 06:51:39;;;;;;;;;3.00;2.00;;;;;;;;5038776;28;47149;-74
2021/07/05 06:54:05;;;;;;;;;3.33;2.00;;;;;;;;5034664;28;45726;-73
2021/07/05 06:56:30;;;;;;;;;1.33;1.33;;;;;;;;5034674;28;45663;-54
2021/07/05 06:58:55;;;;;;;;;3.67;2.00;;;;;;;;5046087;28;45432;-53
2021/07/05 07:01:20;;;;;;;;;2.67;2.67;;;;;;;;5065278;28;45603;-50
2021/07/05 07:03:45;;;;;;;;;2.00;2.00;;;;;;;;5057095;28;45400;-55
2021/07/05 07:06:11;;;;;;;;;2.33;2.00;;;;;;;;5057773;28;46910;-54
2021/07/05 07:08:36;;;;;;;;;2.00;2.00;;;;;;;;5060007;28;45308;-55
2021/07/05 07:11:01;;;;;;;;;2.33;2.33;;;;;;;;5033778;28;46367;-52
2021/07/05 07:13:26;;;;;;;;;2.00;1.25;;;;;;;;5046134;27;45319;-65
2021/07/05 07:15:56;;;;;;;;;3.00;2.00;;;;;;;;5049861;28;45482;-56
2021/07/05 07:20:55;;;;;;;;;3.50;2.75;;;;;;;;5044505;28;45481;-52
2021/07/05 07:23:21;;;;;;;;;4.00;2.50;;;;;;;;5042966;28;45453;-55
2021/07/05 07:25:46;;;;;;;;;2.25;2.25;;;;;;;;5040978;28;45382;-51
2021/07/05 07:28:11;;;;;;;;;2.33;2.00;;;;;;;;5056710;28;45729;-53
2021/07/05 07:30:36;;;;;;;;;4.00;2.00;;;;;;;;5055609;28;45483;-55
2021/07/05 07:33:02;;;;;;;;;4.33;3.00;;;;;;;;5041964;28;45683;-59
2021/07/05 07:35:27;;;;;;;;;2.50;2.50;;;;;;;;5045854;28;45509;-52
2021/07/05 07:37:53;;;;;;;;;2.33;2.33;;;;;;;;5052800;28;45297;-54
2021/07/05 07:40:21;;;;;;;;;4.00;2.00;;;;;;;;5053531;28;46889;-54
2021/07/05 07:42:47;;;;;;;;;7.25;3.00;;;;;;;;5052926;28;45803;-50
2021/07/05 07:45:13;;;;;;;;;3.00;2.50;;;;;;;;5052758;28;45402;-54
2021/07/05 07:47:39;;;;;;;;;4.25;3.25;;;;;;;;5049022;28;45520;-51
2021/07/05 07:50:05;;;;;;;;;2.75;2.75;;;;;;;;5052538;28;46149;-54
2021/07/05 07:52:31;;;;;;;;;4.25;2.25;;;;;;;;5053190;28;45911;-53
2021/07/05 07:54:56;;;;;;;;;3.75;3.00;;;;;;;;5051788;28;45359;-55
2021/07/05 07:57:21;;;;;;;;;2.00;2.00;;;;;;;;5050901;28;45410;-54
2021/07/05 07:59:47;;;;;;;;;3.00;3.00;;;;;;;;5050538;28;45402;-55
2021/07/05 08:02:12;;;;;;;;;3.75;3.75;;;;;;;;5059379;28;45361;-48
2021/07/05 08:04:38;;;;;;;;;4.50;2.00;;;;;;;;5052614;28;45774;-52
2021/07/05 08:07:04;;;;;;;;;2.25;2.00;;;;;;;;5051832;28;45481;-52
2021/07/05 08:09:29;;;;;;;;;4.50;3.25;;;;;;;;5050259;28;47091;-54
2021/07/05 08:11:54;;;;;;;;;3.00;3.00;;;;;;;;5050012;28;45573;-55
2021/07/05 08:14:20;;;;;;;;;2.00;2.00;;;;;;;;5052571;28;45330;-54
2021/07/05 08:16:45;;;;;;;;;2.00;2.00;;;;;;;;5051687;28;45495;-52
2021/07/05 08:19:10;;;;;;;;;2.00;2.00;;;;;;;;5051802;28;47079;-51
2021/07/05 08:21:37;;;;;;;;;2.33;2.33;;;;;;;;5051020;28;45339;-53
2021/07/05 08:24:03;;;;;;;;;1.00;1.00;;;;;;;;5052414;28;45462;-49
2021/07/05 08:26:28;;;;;;;;;1.00;1.00;;;;;;;;5059659;27;45467;-54
2021/07/05 08:28:54;;;;;;;;;3.00;1.00;;;;;;;;5051829;28;46196;-52
2021/07/05 08:31:19;;;;;;;;;1.00;1.00;;;;;;;;5050493;28;45374;-49
2021/07/05 08:33:47;;;;;;;;;0.50;0.50;;;;;;;;5052301;28;45434;-49
2021/07/05 08:36:12;;;;;;;;;3.50;1.00;;;;;;;;5051268;28;45579;-53
2021/07/05 08:38:37;;;;;;;;;0.67;0.67;;;;;;;;5050100;28;46263;-51
2021/07/05 08:41:02;;;;;;;;;1.00;1.00;;;;;;;;5057112;28;45606;-51
2021/07/05 08:43:28;;;;;;;;;1.00;1.00;;;;;;;;5043762;28;45494;-53
2021/07/05 08:45:57;;;;;;;;;1.00;1.00;;;;;;;;5052241;28;45530;-53
2021/07/05 08:48:23;;;;;;;;;2.00;2.00;;;;;;;;5050585;28;45461;-55
2021/07/05 08:50:50;;;;;;;;;1.75;1.75;;;;;;;;5049958;28;45733;-51
2021/07/05 08:53:15;;;;;;;;;1.00;1.00;;;;;;;;5059230;28;45374;-55
2021/07/05 08:55:41;;;;;;;;;1.00;1.00;;;;;;;;5062148;28;45364;-48
2021/07/05 08:58:07;;;;;;;;;1.00;1.00;;;;;;;;5054239;28;45475;-53
2021/07/05 09:00:32;;;;;;;;;0.00;0.00;;;;;;;;5053648;28;45233;-55
2021/07/05 09:02:59;;;;;;;;;1.00;1.00;;;;;;;;5056335;28;45894;-50
2021/07/05 09:05:24;;;;;;;;;1.50;1.00;;;;;;;;5060255;28;45533;-55
2021/07/05 09:08:05;;;;;;;;;1.00;1.00;;;;;;;;5049366;28;46235;-48
2021/07/05 09:10:50;;;;;;;;;0.25;0.25;;;;;;;;5058720;28;46304;-49
2021/07/05 09:13:20;;;;;;;;;1.00;1.00;;;;;;;;5055855;28;45454;-47
2021/07/05 09:15:56;;;;;;;;;0.75;0.75;;;;;;;;5055489;28;47582;-49
2021/07/05 09:18:22;;;;;;;;;0.25;0.25;;;;;;;;5046087;28;46579;-50
2021/07/05 09:20:47;;;;;;;;;1.00;1.00;;;;;;;;5048758;28;45973;-50
2021/07/05 09:23:14;;;;;;;;;0.00;0.00;;;;;;;;5060484;28;45426;-50
2021/07/05 09:25:40;;;;;;;;;1.00;1.00;;;;;;;;5061035;28;45529;-49
2021/07/05 09:28:06;;;;;;;;;1.00;1.00;;;;;;;;5053866;28;46120;-51
2021/07/05 09:30:41;;;;;;;;;1.00;1.00;;;;;;;;5056065;28;45391;-58
2021/07/05 09:33:14;;;;;;;;;0.50;0.00;;;;;;;;5054842;27;45466;-55
2021/07/05 09:35:39;;;;;;;;;0.00;0.00;;;;;;;;5058765;28;45428;-57
2021/07/05 09:38:04;;;;;;;;;0.00;0.00;;;;;;;;5050005;28;46083;-58
2021/07/05 09:40:29;;;;;;;;;0.00;0.00;;;;;;;;5042225;28;46519;-57
2021/07/05 09:42:55;;;;;;;;;1.00;1.00;;;;;;;;5052814;28;45512;-57
2021/07/05 09:45:23;;;;;;;;;0.75;0.75;;;;;;;;5045899;28;45743;-57
2021/07/05 09:48:06;;;;;;;;;0.00;0.00;;;;;;;;5056062;28;46077;-57
2021/07/05 09:50:34;;;;;;;;;0.50;0.50;;;;;;;;5041446;28;45371;-57
2021/07/05 09:53:19;;;;;;;;;2.00;0.25;;;;;;;;5059900;28;45643;-57
2021/07/05 09:55:45;;;;;;;;;0.00;0.00;;;;;;;;5059232;28;45524;-60
2021/07/05 09:58:10;;;;;;;;;0.33;0.33;;;;;;;;5054482;28;46191;-53
2021/07/05 10:00:38;;;;;;;;;1.50;1.00;;;;;;;;5052445;28;45577;-56
2021/07/05 10:03:04;;;;;;;;;2.00;2.00;;;;;;;;5048405;28;45833;-51
2021/07/05 10:05:34;;;;;;;;;2.25;2.00;;;;;;;;5059369;28;45365;-55
2021/07/05 10:08:05;;;;;;;;;1.25;1.25;;;;;;;;5058387;28;46491;-57
2021/07/05 10:10:30;;;;;;;;;0.00;0.00;;;;;;;;5044661;28;45465;-56
2021/07/05 10:13:00;;;;;;;;;0.25;0.25;;;;;;;;5049492;28;45422;-76
2021/07/05 10:15:26;;;;;;;;;0.50;0.50;;;;;;;;5049818;28;45954;-78
2021/07/05 10:17:53;;;;;;;;;2.00;0.25;;;;;;;;5049160;28;45652;-77
2021/07/05 10:20:22;;;;;;;;;1.00;1.00;;;;;;;;5049748;28;45537;-79
2021/07/05 10:22:48;;;;;;;;;2.00;0.00;;;;;;;;5049321;28;45319;-78
2021/07/05 10:25:14;;;;;;;;;0.00;0.00;;;;;;;;5050222;28;45756;-78
2021/07/05 10:27:40;;;;;;;;;0.00;0.00;;;;;;;;5047904;28;46639;-79
2021/07/05 10:30:07;;;;;;;;;0.75;0.00;;;;;;;;5046334;28;45413;-79
2021/07/05 10:32:32;;;;;;;;;0.00;0.00;;;;;;;;5049823;28;45483;-79
2021/07/05 10:34:57;;;;;;;;;0.67;0.67;;;;;;;;5051658;28;45453;-78
2021/07/05 10:37:29;;;;;;;;;1.00;1.00;;;;;;;;5054640;28;46130;-79
2021/07/05 10:39:55;;;;;;;;;0.75;0.75;;;;;;;;5052685;28;45577;-79
2021/07/05 10:42:27;;;;;;;;;0.50;0.00;;;;;;;;5051615;28;45542;-79
2021/07/05 10:44:52;;;;;;;;;0.25;0.25;;;;;;;;5046975;28;45739;-78
2021/07/05 10:47:38;;;;;;;;;0.00;0.00;;;;;;;;5051487;28;45355;-79
2021/07/05 10:50:03;;;;;;;;;0.00;0.00;;;;;;;;5052863;28;45699;-78
2021/07/05 10:52:46;;;;;;;;;0.50;0.50;;;;;;;;5054190;28;45411;-78
2021/07/05 10:55:31;;;;;;;;;2.75;1.00;;;;;;;;5067479;28;45615;-77
2021/07/05 10:57:56;;;;;;;;;0.00;0.00;;;;;;;;5050331;28;46529;-77
2021/07/05 11:00:22;;;;;;;;;0.00;0.00;;;;;;;;5047155;28;46305;-79
2021/07/05 11:02:48;;;;;;;;;2.00;0.00;;;;;;;;5044256;28;45477;-79
2021/07/05 11:05:32;;;;;;;;;1.00;1.00;;;;;;;;5053613;28;45489;-79
2021/07/05 11:08:16;;;;;;;;;1.00;1.00;;;;;;;;5052833;28;47414;-79
2021/07/05 11:10:41;;;;;;;;;0.75;0.75;;;;;;;;5053106;28;45826;-79
2021/07/05 11:13:06;;;;;;;;;0.00;0.00;;;;;;;;5053785;28;45423;-80
2021/07/05 11:15:52;;;;;;;;;0.00;0.00;;;;;;;;5053548;28;46151;-80
2021/07/05 11:18:35;;;;;;;;;0.00;0.00;;;;;;;;5053530;28;46491;-79
2021/07/05 11:21:00;;;;;;;;;0.00;0.00;;;;;;;;5052851;28;45618;-79
2021/07/05 11:23:45;;;;;;;;;2.00;0.00;;;;;;;;5054127;28;45401;-80
2021/07/05 11:26:18;;;;;;;;;0.00;0.00;;;;;;;;5052828;28;45483;-79
2021/07/05 11:28:43;;;;;;;;;0.25;0.25;;;;;;;;5054861;28;46161;-79
2021/07/05 11:31:19;;;;;;;;;0.25;0.25;;;;;;;;5050312;27;45588;-79
2021/07/05 11:33:44;;;;;;;;;0.00;0.00;;;;;;;;5049980;28;45568;-80
2021/07/05 11:36:17;;;;;;;;;1.00;1.00;;;;;;;;5053471;28;45445;-80
2021/07/05 11:38:43;;;;;;;;;1.00;1.00;;;;;;;;5052768;28;46886;-80
2021/07/05 11:41:12;;;;;;;;;0.75;0.00;;;;;;;;5052509;28;45818;-80
2021/07/05 11:43:52;;;;;;;;;0.75;0.75;;;;;;;;5053790;28;45671;-77
2021/07/05 11:46:38;;;;;;;;;0.00;0.00;;;;;;;;5049707;28;45437;-77
2021/07/05 11:49:06;;;;;;;;;0.00;0.00;;;;;;;;5041988;28;46334;-78
2021/07/05 11:51:32;;;;;;;;;2.25;2.25;;;;;;;;5052543;28;45772;-78
2021/07/05 11:54:05;;;;;;;;;0.00;0.00;;;;;;;;5053265;28;45541;-78
2021/07/05 11:56:33;;;;;;;;;0.00;0.00;;;;;;;;5045746;28;45402;-78
2021/07/05 11:58:59;;;;;;;;;0.00;0.00;;;;;;;;5052377;28;46615;-78
2021/07/05 12:01:25;;;;;;;;;0.00;0.00;;;;;;;;5053359;28;45764;-78
2021/07/05 12:03:52;;;;;;;;;0.00;0.00;;;;;;;;5069172;28;45494;-78
2021/07/05 12:06:17;;;;;;;;;0.00;0.00;;;;;;;;5038929;28;45774;-78
2021/07/05 12:08:50;;;;;;;;;0.00;0.00;;;;;;;;5048070;28;48299;-78
2021/07/05 12:11:25;;;;;;;;;1.00;0.00;;;;;;;;5052940;28;45413;-78
2021/07/05 12:14:00;;;;;;;;;0.00;0.00;;;;;;;;5046921;28;45339;-78
2021/07/05 12:16:26;;;;;;;;;0.00;0.00;;;;;;;;5049477;28;45442;-78
2021/07/05 12:18:58;;;;;;;;;0.00;0.00;;;;;;;;5051653;28;45970;-78
2021/07/05 12:21:30;;;;;;;;;0.25;0.25;;;;;;;;5047336;28;45693;-78
2021/07/05 12:24:06;;;;;;;;;0.00;0.00;;;;;;;;5051142;28;45641;-78
2021/07/05 12:26:39;;;;;;;;;0.00;0.00;;;;;;;;5052105;28;45519;-78
2021/07/05 12:29:05;;;;;;;;;0.00;0.00;;;;;;;;5054346;28;46322;-78
2021/07/05 12:31:31;;;;;;;;;2.00;0.00;;;;;;;;5063158;28;45367;-78
2021/07/05 12:33:57;;;;;;;;;0.75;0.00;;;;;;;;5051087;28;45437;-78
2021/07/05 12:36:22;;;;;;;;;0.00;0.00;;;;;;;;5053432;28;45600;-78
2021/07/05 12:39:18;;;;;;;;;0.25;0.25;;;;;;;;5058192;27;45302;-80
2021/07/05 12:41:44;;;;;;;;;0.00;0.00;;;;;;;;5030234;28;45448;-80
2021/07/05 12:44:13;;;;;;;;;0.00;0.00;;;;;;;;5052004;28;45530;-80
2021/07/05 12:46:38;;;;;;;;;0.00;0.00;;;;;;;;5048637;28;45654;-78
2021/07/05 12:49:04;;;;;;;;;0.00;0.00;;;;;;;;5053252;28;45993;-78
2021/07/05 12:51:29;;;;;;;;;0.00;0.00;;;;;;;;5049691;28;45475;-77
2021/07/05 12:53:54;;;;;;;;;0.00;0.00;;;;;;;;5050202;28;45500;-78
2021/07/05 12:56:27;;;;;;;;;0.00;0.00;;;;;;;;5050939;28;45854;-78
2021/07/05 12:58:56;;;;;;;;;0.00;0.00;;;;;;;;5047790;28;47541;-78
2021/07/05 13:01:25;;;;;;;;;0.00;0.00;;;;;;;;5053535;28;45751;-78
2021/07/05 13:04:09;;;;;;;;;0.00;0.00;;;;;;;;5053203;28;45410;-78
2021/07/05 13:06:39;;;;;;;;;0.00;0.00;;;;;;;;5051268;28;45337;-78
2021/07/05 13:09:07;;;;;;;;;0.50;0.50;;;;;;;;5050419;28;45529;-78
2021/07/05 13:11:46;;;;;;;;;0.00;0.00;;;;;;;;5050645;28;45517;-79
2021/07/05 13:14:12;;;;;;;;;0.00;0.00;;;;;;;;5037932;28;45339;-78
2021/07/05 13:16:38;;;;;;;;;0.00;0.00;;;;;;;;5043696;28;45887;-77
2021/07/05 13:19:16;;;;;;;;;0.00;0.00;;;;;;;;5051663;28;46260;-78
2021/07/05 13:21:42;;;;;;;;;0.00;0.00;;;;;;;;5037648;28;45537;-77
2021/07/05 13:24:22;;;;;;;;;1.25;0.00;;;;;;;;5050696;28;45477;-76
2021/07/05 13:26:49;;;;;;;;;0.00;0.00;;;;;;;;5037296;28;45481;-77
2021/07/05 13:29:18;;;;;;;;;2.00;0.00;;;;;;;;5049740;28;45746;-77
2021/07/05 13:31:44;;;;;;;;;0.00;0.00;;;;;;;;5050108;28;45640;-77
2021/07/05 13:34:29;;;;;;;;;0.00;0.00;;;;;;;;5053035;28;45454;-77
2021/07/05 13:36:54;;;;;;;;;0.00;0.00;;;;;;;;5038024;28;45434;-77
2021/07/05 13:39:19;;;;;;;;;0.00;0.00;;;;;;;;5050890;28;45450;-77
2021/07/05 13:41:45;;;;;;;;;0.00;0.00;;;;;;;;5037305;28;45454;-76
2021/07/05 13:44:10;;;;;;;;;1.00;0.00;;;;;;;;5042135;28;45309;-76
2021/07/05 13:46:35;;;;;;;;;0.00;0.00;;;;;;;;5050802;28;45331;-76
2021/07/05 13:49:13;;;;;;;;;0.00;0.00;;;;;;;;5057680;28;45212;-77
2021/07/05 13:51:38;;;;;;;;;1.75;0.00;;;;;;;;5055089;27;45426;-78
2021/07/05 13:54:03;;;;;;;;;0.00;0.00;;;;;;;;5056301;27;45458;-76
2021/07/05 13:56:31;;;;;;;;;0.00;0.00;;;;;;;;5053251;28;45670;-77
2021/07/05 13:58:58;;;;;;;;;0.00;0.00;;;;;;;;5049030;28;46140;-76
2021/07/05 14:01:25;;;;;;;;;2.00;0.00;;;;;;;;5052102;28;45667;-77
2021/07/05 14:03:51;;;;;;;;;0.00;0.00;;;;;;;;5052217;28;45408;-77
2021/07/05 14:06:17;;;;;;;;;0.00;0.00;;;;;;;;5043289;28;45525;-77
2021/07/05 14:08:46;;;;;;;;;0.00;0.00;;;;;;;;5047788;28;45379;-77
2021/07/05 14:11:12;;;;;;;;;2.00;0.00;;;;;;;;5048032;28;45643;-77
2021/07/05 14:13:38;;;;;;;;;0.00;0.00;;;;;;;;5050214;28;45799;-76
2021/07/05 14:16:05;;;;;;;;;0.00;0.00;;;;;;;;5047919;28;45374;-77
2021/07/05 14:18:30;;;;;;;;;0.00;0.00;;;;;;;;5046950;28;45447;-78
2021/07/05 14:20:56;;;;;;;;;1.00;1.00;;;;;;;;5048512;28;45522;-78
2021/07/05 14:23:23;;;;;;;;;1.00;1.00;;;;;;;;5050606;28;46218;-78
2021/07/05 14:25:50;;;;;;;;;0.00;0.00;;;;;;;;5047806;28;45538;-76
2021/07/05 14:28:16;;;;;;;;;0.00;0.00;;;;;;;;5047983;28;45391;-77
2021/07/05 14:30:42;;;;;;;;;0.00;0.00;;;;;;;;5051119;28;45701;-77
2021/07/05 14:33:07;;;;;;;;;0.00;0.00;;;;;;;;5048034;28;45601;-77
2021/07/05 14:35:33;;;;;;;;;0.75;0.75;;;;;;;;5048934;28;45387;-77
2021/07/05 14:37:59;;;;;;;;;1.00;1.00;;;;;;;;5048801;28;46215;-77
2021/07/05 14:40:24;;;;;;;;;0.50;0.50;;;;;;;;5051037;28;45412;-77
2021/07/05 14:42:50;;;;;;;;;0.00;0.00;;;;;;;;5048255;28;45527;-78
2021/07/05 14:45:16;;;;;;;;;0.00;0.00;;;;;;;;5047328;28;45513;-79